Warning: Javascript must be enabled to use all the features on this page!


Page Loading - Please Wait...

Click to hideNews Bulletins

Peak Streamflow for the Nation

USGS 03281500 SOUTH FORK KENTUCKY RIVER AT BOONEVILLE, KY

Owsley County, Kentucky
Hydrologic Unit Code 05100203
Latitude  37°28'47", Longitude  83°40'31" NAD27
Drainage area 722.0  square miles
Gage datum 642.49 feet above NGVD29
Output formats
Table
Graph
Tab-separated file
peakfq (watstore) format
Reselect output format
Water
Year
Date Gage
Height
(feet)
Stream-
flow
(cfs)
1926 1926-01-22 29.50 22,600
1927 1926-12-22 34.50 44,100
1928 1927-11-17 20.20 15,800
1929 1929-03-23 39.30 37,900
1930 1929-11-18 16.42 7,190
1931 1931-04-23 22.28 9,540
1937 1937-01 26.20Bd 16,1007,Bd
1939 1939-02 40.50Bd 48,1007,Bd
1940 1940-04-20 22.80 13,800
1941 1941-07-06 25.43 16,600
1942 1942-08-09 21.40 12,400
1943 1943-03-20 29.74 23,900
1944 1944-04-12 28.77 22,300
1945 1945-03-06 27.63 19,300
1946 1946-01-08 38.83 42,100
1947 1947-06-29 41.70 50,700
1948 1948-02-14 38.26 40,500
1949 1949-03-19 25.91 16,800
1950 1950-02-02 28.86 21,300
1951 1951-02-02 38.48 41,000
1952 1952-03-23 34.14 31,900
1953 1953-05-07 21.95 12,600
1954 1954-01-16 16.23 8,230
1955 1955-02-22 31.53 26,700
1956 1956-02-18 36.85 39,600
1957 1957-01-30 43.40 66,100
1958 1958-05-08 30.65 23,800
1959 1959-01-22 27.78 18,900
1960 1960-06-24 30.75 24,600
1961 1961-03-09 22.74 13,000
1962 1962-02-28 40.74 54,700
1963 1963-03-12   48,800
1964 1964-03-09 23.35 13,800
1965 1965-03-27 29.58 21,900
1966 1966-02-14 22.97 13,200
1967 1967-03-07 36.10 35,400
1968 1968-03-13 30.40 23,300
1969 1969-01-20 17.33 8,950
1970 1970-04-29 36.93 37,400
1971 1971-05-08 30.83 24,200
1972 1972-04-13 34.28 31,200
1973 1972-12-11 31.47 25,400
1974 1974-01-11 36.84 37,200
1975 1975-03-14 40.36 47,600
1976 1976-03-30 27.10 17,200
1977 1977-04-05 37.75 39,400
1978 1978-01-26 33.28 29,100
1979 1978-12-09 36.91 37,400
1980 1980-03-22 21.25 11,900
1981 1981-06-07 32.51 27,200
1982 1982-01-04 26.60 17,100
1983 1983-05-16 31.41 24,900
1984 1984-05-08 41.12 51,600
1985 1984-11-19 21.78 12,300
1986 1986-02-18 25.15 15,500
1987 1986-11-09 25.48 15,900
1988 1988-01-20 20.10 11,000
1989 1989-03-07 32.54 26,200
1990 1989-10-18 34.28 30,200
1991 1990-12-24 30.73 22,600
1992 1991-12-03 32.38 25,900
1993 1993-03-05 23.91 14,300
1994 1994-03-28 32.99 27,200
1995 1995-05-19 27.07 17,500
1996 1996-05-29 26.61 17,100
1997 1997-03-04 30.59 22,400
1998 1998-04-18 31.92 25,000
1999 1999-01-10 27.73 18,800
2000 2000-04-04 20.65 11,800
2001 2001-02-17 26.48 17,300
2002 2002-03-19 29.98 21,800
2003 2003-02-17 38.63 34,500
2004 2004-02-07 35.66 29,500
2005 2005-05-01 29.52 20,600
2006 2006-01-24 23.92 14,300
2007 2007-04-16 25.32 15,700
2008 2008-04-05 20.63 11,300
2009 2009-05-04 32.47 24,700
2010 2010-01-25 31.40 23,200
2011 2011-04-28 26.40 18,600
2012 2011-11-29 21.68 13,700
2013 2013-04-18 29.27 18,800
2014 2013-12-07 26.21 15,000
2015 2015-03-05 33.16 24,600
2016 2016-02-07 29.74 19,500
2017 2017-04-24 26.09 14,900
2018 2018-02-12 32.40 23,400
?
  Peak Gage-Height Qualification Codes.
?
  Peak Streamflow Qualification Codes.